Spillimacheen, Canada
Current Conditions -  °F | °C
As of 5:00 PM on Wednesday 22 Oct 2014 (Local Time) from CYGE Reporting Station
Light Rain Light Rain  
Wind Chill: 52°   Ceiling: 6500
Heat Index: 52°   Visibility: 20mi
Dew Point: 41°   Wind: 10mph
Humidity: 67%   Direction: 130°SE
Pressure: 29.75"   Gusts: NA
Location:  50.9°N, 116.37°W
Report Text: CYGE 222300Z 13009KT 20SM -RA SCT045 BKN065 OVC085 11/05 A2975 RMK SC4SC2AS2 VIS E LWR SLP084 DENSITY ALT 2900FT
Loading
Personal Weather Stations






























Interactive Weather Map
Tropical Storm Tracking
New forecast layout! Learn more

10-Day Weather Forecast

Advertisements
Track Severe Weather on mobile